Time,TemperatureF,DewpointF,PressureIn,WindDirection,WindDirectionDegrees,WindSpeedMPH,WindSpeedGustMPH,Humidity,HourlyPrecipIn,Conditions,Clouds,dailyrainin,SolarRadiationWatts/m^2,SoftwareType,DateUTC
2013-11-29 00:01:00,29.1,15.3,30.48,NW,323,0.0,0.0,56,0.00,OVC,,0.00,0.0,WeatherDisplay:10.37,2013-11-29 05:01:00,
2013-11-29 00:02:00,28.8,15.1,30.48,NW,323,0.0,0.0,56,0.00,OVC,,0.00,0.0,WeatherDisplay:10.37,2013-11-29 05:02:00,
2013-11-29 00:07:00,28.4,15.1,30.48,NW,323,0.0,0.0,57,0.00,OVC,,0.00,0.0,WeatherDisplay:10.37,2013-11-29 05:07:00,
2013-11-29 00:12:00,27.8,14.5,30.48,NW,323,0.0,0.0,57,0.00,OVC,,0.00,0.0,WeatherDisplay:10.37,2013-11-29 05:12:00,
2013-11-29 00:17:00,27.2,14.0,30.48,NW,323,0.0,0.0,57,0.00,OVC,,0.00,0.0,WeatherDisplay:10.37,2013-11-29 05:17:00,
2013-11-29 00:22:00,26.9,14.1,30.48,NW,323,0.0,0.0,58,0.00,OVC,,0.00,0.0,WeatherDisplay:10.37,2013-11-29 05:22:00,
2013-11-29 00:27:00,26.3,13.5,30.48,NW,323,0.0,0.0,58,0.00,OVC,,0.00,0.0,WeatherDisplay:10.37,2013-11-29 05:27:00,
2013-11-29 00:32:00,26.0,13.6,30.48,NW,323,0.0,0.0,59,0.00,OVC,,0.00,0.0,WeatherDisplay:10.37,2013-11-29 05:32:00,
2013-11-29 00:37:00,25.6,13.6,30.48,NW,323,0.0,0.0,60,0.00,OVC,,0.00,0.0,WeatherDisplay:10.37,2013-11-29 05:37:00,
2013-11-29 00:42:00,25.3,13.7,30.48,NW,323,0.0,0.0,61,0.00,OVC,,0.00,0.0,WeatherDisplay:10.37,2013-11-29 05:42:00,
2013-11-29 00:47:00,24.8,13.6,30.47,NW,323,0.0,0.0,62,0.00,OVC,,0.00,0.0,WeatherDisplay:10.37,2013-11-29 05:47:00,
2013-11-29 00:52:00,24.4,13.6,30.47,NW,323,0.0,0.0,63,0.00,OVC,,0.00,0.0,WeatherDisplay:10.37,2013-11-29 05:52:00,
2013-11-29 00:57:00,23.9,13.5,30.48,NW,323,0.0,0.0,64,0.00,OVC,,0.00,0.0,WeatherDisplay:10.37,2013-11-29 05:57:00,
2013-11-29 01:02:00,23.6,13.9,30.48,NW,323,0.0,0.0,66,0.00,OVC,,0.00,0.0,WeatherDisplay:10.37,2013-11-29 06:02:00,
2013-11-29 01:07:00,23.9,15.2,30.48,NW,323,0.0,0.0,69,0.00,OVC,,0.00,0.0,WeatherDisplay:10.37,2013-11-29 06:07:00,
2013-11-29 01:12:00,23.9,15.9,30.48,NW,323,0.0,0.0,71,0.00,OVC,,0.00,0.0,WeatherDisplay:10.37,2013-11-29 06:12:00,
2013-11-29 01:17:00,23.9,15.9,30.48,NW,323,0.0,0.0,71,0.00,OVC,,0.00,0.0,WeatherDisplay:10.37,2013-11-29 06:17:00,
2013-11-29 01:22:00,23.5,15.5,30.48,NW,323,0.0,0.0,71,0.00,OVC,,0.00,0.0,WeatherDisplay:10.37,2013-11-29 06:22:00,
2013-11-29 01:27:00,23.2,15.5,30.48,NW,323,0.0,0.0,72,0.00,OVC,,0.00,0.0,WeatherDisplay:10.37,2013-11-29 06:27:00,
2013-11-29 01:32:00,23.0,15.3,30.48,NW,323,0.0,0.0,72,0.00,OVC,,0.00,0.0,WeatherDisplay:10.37,2013-11-29 06:32:00,
2013-11-29 01:37:00,22.9,15.2,30.48,NW,323,0.0,0.0,72,0.00,OVC,,0.00,0.0,WeatherDisplay:10.37,2013-11-29 06:37:00,
2013-11-29 01:42:00,22.7,15.3,30.48,NW,323,0.0,0.0,73,0.00,OVC,,0.00,0.0,WeatherDisplay:10.37,2013-11-29 06:42:00,
2013-11-29 01:47:00,22.7,15.3,30.48,NW,323,0.0,0.0,73,0.00,OVC,,0.00,0.0,WeatherDisplay:10.37,2013-11-29 06:47:00,
2013-11-29 01:52:00,22.9,15.8,30.48,NW,323,0.0,0.0,74,0.00,OVC,,0.00,0.0,WeatherDisplay:10.37,2013-11-29 06:52:00,
2013-11-29 01:57:00,22.9,15.8,30.48,NW,323,0.0,0.0,74,0.00,OVC,,0.00,0.0,WeatherDisplay:10.37,2013-11-29 06:57:00,
2013-11-29 02:02:00,23.0,16.3,30.48,NW,323,0.0,0.0,75,0.00,FEW,,0.00,0.0,WeatherDisplay:10.37,2013-11-29 07:02:00,
2013-11-29 02:07:00,23.2,16.4,30.48,NW,323,0.0,0.0,75,0.00,FEW,,0.00,0.0,WeatherDisplay:10.37,2013-11-29 07:07:00,
2013-11-29 02:12:00,23.2,16.4,30.49,NW,323,0.0,0.0,75,0.00,FEW,,0.00,0.0,WeatherDisplay:10.37,2013-11-29 07:12:00,
2013-11-29 02:17:00,23.0,16.3,30.49,NW,323,0.0,0.0,75,0.00,FEW,,0.00,0.0,WeatherDisplay:10.37,2013-11-29 07:17:00,
2013-11-29 02:22:00,22.9,16.2,30.49,NW,323,0.0,0.0,75,0.00,FEW,,0.00,0.0,WeatherDisplay:10.37,2013-11-29 07:22:00,
2013-11-29 02:27:00,22.7,16.0,30.49,NW,323,0.0,0.0,75,0.00,FEW,,0.00,0.0,WeatherDisplay:10.37,2013-11-29 07:27:00,
2013-11-29 02:32:00,22.4,15.7,30.49,NW,323,0.0,0.0,75,0.00,FEW,,0.00,0.0,WeatherDisplay:10.37,2013-11-29 07:32:00,
2013-11-29 02:37:00,22.1,15.4,30.49,NW,323,0.0,0.0,75,0.00,FEW,,0.00,0.0,WeatherDisplay:10.37,2013-11-29 07:37:00,
2013-11-29 02:42:00,21.6,14.9,30.49,NW,323,0.0,0.0,75,0.00,FEW,,0.00,0.0,WeatherDisplay:10.37,2013-11-29 07:42:00,
2013-11-29 02:47:00,21.4,14.7,30.49,NW,323,0.0,0.0,75,0.00,FEW,,0.00,0.0,WeatherDisplay:10.37,2013-11-29 07:47:00,
2013-11-29 02:52:00,21.3,14.6,30.49,NW,323,0.0,0.0,75,0.00,FEW,,0.00,0.0,WeatherDisplay:10.37,2013-11-29 07:52:00,
2013-11-29 02:57:00,21.1,14.4,30.49,NW,323,0.0,0.0,75,0.00,FEW,,0.00,0.0,WeatherDisplay:10.37,2013-11-29 07:57:00,
2013-11-29 03:02:00,20.8,14.1,30.49,NW,323,0.0,0.0,75,0.00,FEW,,0.00,0.0,WeatherDisplay:10.37,2013-11-29 08:02:00,
2013-11-29 03:07:00,20.6,13.9,30.50,NW,323,0.0,0.0,75,0.00,FEW,,0.00,0.0,WeatherDisplay:10.37,2013-11-29 08:07:00,
2013-11-29 03:12:00,20.8,14.1,30.50,NW,323,0.0,0.0,75,0.00,FEW,,0.00,0.0,WeatherDisplay:10.37,2013-11-29 08:12:00,
2013-11-29 03:17:00,21.0,14.3,30.50,NW,323,0.0,0.0,75,0.00,FEW,,0.00,0.0,WeatherDisplay:10.37,2013-11-29 08:17:00,
2013-11-29 03:22:00,21.1,14.7,30.50,NW,323,0.0,0.0,76,0.00,FEW,,0.00,0.0,WeatherDisplay:10.37,2013-11-29 08:22:00,
2013-11-29 03:27:00,21.1,14.7,30.50,NW,323,0.0,0.0,76,0.00,FEW,,0.00,0.0,WeatherDisplay:10.37,2013-11-29 08:27:00,
2013-11-29 03:32:00,21.1,15.0,30.50,NW,323,0.0,0.0,77,0.00,FEW,,0.00,0.0,WeatherDisplay:10.37,2013-11-29 08:32:00,
2013-11-29 03:37:00,21.1,15.0,30.50,NW,323,0.0,0.0,77,0.00,FEW,,0.00,0.0,WeatherDisplay:10.37,2013-11-29 08:37:00,
2013-11-29 03:42:00,21.0,14.9,30.50,NW,323,0.0,0.0,77,0.00,FEW,,0.00,0.0,WeatherDisplay:10.37,2013-11-29 08:42:00,
2013-11-29 03:47:00,20.6,14.5,30.50,NW,323,0.0,0.0,77,0.00,FEW,,0.00,0.0,WeatherDisplay:10.37,2013-11-29 08:47:00,
2013-11-29 03:52:00,20.5,14.4,30.50,NW,323,0.0,0.0,77,0.00,FEW,,0.00,0.0,WeatherDisplay:10.37,2013-11-29 08:52:00,
2013-11-29 03:57:00,20.2,14.1,30.50,NW,323,0.0,0.0,77,0.00,FEW,,0.00,0.0,WeatherDisplay:10.37,2013-11-29 08:57:00,
2013-11-29 04:02:00,19.9,13.9,30.50,NW,323,0.0,0.0,77,0.00,FEW,,0.00,0.0,WeatherDisplay:10.37,2013-11-29 09:02:00,
2013-11-29 04:07:00,19.9,14.1,30.51,NW,323,0.0,0.0,78,0.00,FEW,,0.00,0.0,WeatherDisplay:10.37,2013-11-29 09:07:00,
2013-11-29 04:12:00,19.9,14.1,30.51,NW,323,0.0,0.0,78,0.00,FEW,,0.00,0.0,WeatherDisplay:10.37,2013-11-29 09:12:00,
2013-11-29 04:17:00,19.5,13.8,30.51,NW,323,0.0,0.0,78,0.00,CLR,,0.00,0.0,WeatherDisplay:10.37,2013-11-29 09:17:00,
2013-11-29 04:22:00,19.7,14.0,30.51,NW,323,0.0,0.0,78,0.00,CLR,,0.00,0.0,WeatherDisplay:10.37,2013-11-29 09:22:00,
2013-11-29 04:27:00,20.0,14.2,30.51,NW,323,0.0,0.0,78,0.00,CLR,,0.00,0.0,WeatherDisplay:10.37,2013-11-29 09:27:00,
2013-11-29 04:32:00,20.3,14.8,30.51,NW,323,0.0,0.0,79,0.00,CLR,,0.00,0.0,WeatherDisplay:10.37,2013-11-29 09:32:00,
2013-11-29 04:37:00,20.5,15.0,30.51,NW,323,0.0,0.0,79,0.00,CLR,,0.00,0.0,WeatherDisplay:10.37,2013-11-29 09:37:00,
2013-11-29 04:42:00,20.6,15.1,30.51,NW,323,0.0,0.0,79,0.00,CLR,,0.00,0.0,WeatherDisplay:10.37,2013-11-29 09:42:00,
2013-11-29 04:47:00,21.0,15.5,30.51,NW,323,0.0,0.0,79,0.00,CLR,,0.00,0.0,WeatherDisplay:10.37,2013-11-29 09:47:00,
2013-11-29 04:52:00,21.0,15.5,30.51,NW,323,0.0,0.0,79,0.00,CLR,,0.00,0.0,WeatherDisplay:10.37,2013-11-29 09:52:00,
2013-11-29 04:57:00,21.0,15.5,30.52,NW,323,0.0,0.0,79,0.00,CLR,,0.00,0.0,WeatherDisplay:10.37,2013-11-29 09:57:00,
2013-11-29 05:02:00,20.8,15.3,30.52,NW,323,0.0,0.0,79,0.00,CLR,,0.00,0.0,WeatherDisplay:10.37,2013-11-29 10:02:00,
2013-11-29 05:07:00,20.6,15.1,30.52,NW,323,0.0,0.0,79,0.00,CLR,,0.00,0.0,WeatherDisplay:10.37,2013-11-29 10:07:00,
2013-11-29 05:12:00,20.5,15.0,30.53,NW,323,0.0,0.0,79,0.00,CLR,,0.00,0.0,WeatherDisplay:10.37,2013-11-29 10:12:00,
2013-11-29 05:17:00,20.5,15.0,30.53,NW,323,0.0,0.0,79,0.00,CLR,,0.00,0.0,WeatherDisplay:10.37,2013-11-29 10:17:00,
2013-11-29 05:22:00,20.5,15.0,30.53,NW,323,0.0,0.0,79,0.00,CLR,,0.00,0.0,WeatherDisplay:10.37,2013-11-29 10:22:00,
2013-11-29 05:27:00,20.5,15.0,30.53,NW,323,0.0,0.0,79,0.00,CLR,,0.00,0.0,WeatherDisplay:10.37,2013-11-29 10:27:00,
2013-11-29 05:32:00,20.5,15.0,30.53,NW,323,0.0,0.0,79,0.00,CLR,,0.00,0.0,WeatherDisplay:10.37,2013-11-29 10:32:00,
2013-11-29 05:37:00,20.6,15.4,30.53,NW,323,0.0,0.0,80,0.00,CLR,,0.00,0.0,WeatherDisplay:10.37,2013-11-29 10:37:00,
2013-11-29 05:42:00,20.8,15.6,30.54,NW,323,0.0,0.0,80,0.00,CLR,,0.00,0.0,WeatherDisplay:10.37,2013-11-29 10:42:00,
2013-11-29 05:47:00,21.0,15.8,30.54,NW,323,0.0,0.0,80,0.00,CLR,,0.00,0.0,WeatherDisplay:10.37,2013-11-29 10:47:00,
2013-11-29 05:52:00,21.1,15.9,30.54,NW,323,0.0,0.0,80,0.00,CLR,,0.00,0.0,WeatherDisplay:10.37,2013-11-29 10:52:00,
2013-11-29 05:57:00,21.1,15.9,30.54,NW,323,0.0,0.0,80,0.00,CLR,,0.00,0.0,WeatherDisplay:10.37,2013-11-29 10:57:00,
2013-11-29 06:02:00,21.4,16.2,30.55,NW,323,0.0,0.0,80,0.00,CLR,,0.00,0.0,WeatherDisplay:10.37,2013-11-29 11:02:00,
2013-11-29 06:07:00,21.6,16.4,30.55,NW,323,0.0,0.0,80,0.00,CLR,,0.00,0.0,WeatherDisplay:10.37,2013-11-29 11:07:00,
2013-11-29 06:12:00,21.8,16.9,30.55,NW,323,0.0,0.0,81,0.00,SCT,,0.00,0.0,WeatherDisplay:10.37,2013-11-29 11:12:00,
2013-11-29 06:17:00,22.1,17.2,30.55,NW,323,0.0,0.0,81,0.00,SCT,,0.00,0.0,WeatherDisplay:10.37,2013-11-29 11:17:00,
2013-11-29 06:22:00,22.2,17.3,30.56,NW,323,0.0,0.0,81,0.00,SCT,,0.00,0.0,WeatherDisplay:10.37,2013-11-29 11:22:00,
2013-11-29 06:27:00,22.2,17.3,30.56,NW,323,0.0,0.0,81,0.00,SCT,,0.00,0.0,WeatherDisplay:10.37,2013-11-29 11:27:00,
2013-11-29 06:32:00,22.2,17.3,30.56,NW,323,0.0,0.0,81,0.00,SCT,,0.00,0.0,WeatherDisplay:10.37,2013-11-29 11:32:00,
2013-11-29 06:37:00,22.4,17.5,30.56,NW,323,0.0,0.0,81,0.00,SCT,,0.00,0.0,WeatherDisplay:10.37,2013-11-29 11:37:00,
2013-11-29 06:42:00,22.7,17.7,30.57,NW,323,0.0,0.0,81,0.00,SCT,,0.00,0.0,WeatherDisplay:10.37,2013-11-29 11:42:00,
2013-11-29 06:47:00,22.7,17.7,30.57,NW,323,0.0,0.0,81,0.00,SCT,,0.00,0.0,WeatherDisplay:10.37,2013-11-29 11:47:00,
2013-11-29 06:52:00,22.7,17.7,30.57,NW,323,0.0,0.0,81,0.00,SCT,,0.00,0.0,WeatherDisplay:10.37,2013-11-29 11:52:00,
2013-11-29 06:57:00,22.9,17.9,30.57,NW,323,0.0,0.0,81,0.00,SCT,,0.00,0.0,WeatherDisplay:10.37,2013-11-29 11:57:00,
2013-11-29 07:02:00,23.0,18.0,30.58,NW,323,0.0,0.0,81,0.00,SCT,,0.00,0.0,WeatherDisplay:10.37,2013-11-29 12:02:00,
2013-11-29 07:07:00,23.0,18.0,30.58,NW,323,0.0,0.0,81,0.00,SCT,,0.00,0.0,WeatherDisplay:10.37,2013-11-29 12:07:00,
2013-11-29 07:12:00,23.2,18.2,30.58,NW,323,0.0,0.0,81,0.00,SCT,,0.00,0.0,WeatherDisplay:10.37,2013-11-29 12:12:00,
2013-11-29 07:17:00,23.5,18.5,30.58,NW,323,0.0,0.0,81,0.00,SCT,,0.00,5.0,WeatherDisplay:10.37,2013-11-29 12:17:00,
2013-11-29 07:22:00,23.5,18.5,30.58,NW,323,0.0,0.0,81,0.00,SCT,,0.00,7.0,WeatherDisplay:10.37,2013-11-29 12:22:00,
2013-11-29 07:27:00,23.6,18.6,30.59,NW,323,0.0,0.0,81,0.00,SCT,,0.00,12.0,WeatherDisplay:10.37,2013-11-29 12:27:00,
2013-11-29 07:32:00,23.6,18.6,30.59,NW,323,0.0,0.0,81,0.00,SCT,,0.00,16.0,WeatherDisplay:10.37,2013-11-29 12:32:00,
2013-11-29 07:37:00,23.8,18.8,30.59,NW,323,0.0,0.0,81,0.00,SCT,,0.00,25.0,WeatherDisplay:10.37,2013-11-29 12:37:00,
2013-11-29 07:42:00,23.9,18.9,30.59,NW,323,0.0,0.0,81,0.00,SCT,,0.00,32.0,WeatherDisplay:10.37,2013-11-29 12:42:00,
2013-11-29 07:47:00,23.9,18.9,30.59,NW,323,0.0,0.0,81,0.00,SCT,,0.00,40.0,WeatherDisplay:10.37,2013-11-29 12:47:00,
2013-11-29 07:52:00,23.9,18.9,30.59,NW,323,0.0,0.0,81,0.00,SCT,,0.00,49.0,WeatherDisplay:10.37,2013-11-29 12:52:00,
2013-11-29 07:57:00,24.1,19.1,30.60,NW,323,0.0,0.0,81,0.00,SCT,,0.00,47.0,WeatherDisplay:10.37,2013-11-29 12:57:00,
2013-11-29 08:02:00,24.1,19.1,30.60,NW,323,0.0,0.0,81,0.00,FEW,,0.00,44.0,WeatherDisplay:10.37,2013-11-29 13:02:00,
2013-11-29 08:07:00,24.2,19.2,30.60,NW,323,0.0,0.0,81,0.00,FEW,,0.00,44.0,WeatherDisplay:10.37,2013-11-29 13:07:00,
2013-11-29 08:12:00,24.2,19.2,30.60,NW,323,0.0,0.0,81,0.00,FEW,,0.00,44.0,WeatherDisplay:10.37,2013-11-29 13:12:00,
2013-11-29 08:17:00,24.4,19.4,30.60,NW,323,0.0,0.0,81,0.00,FEW,,0.00,46.0,WeatherDisplay:10.37,2013-11-29 13:17:00,
2013-11-29 08:22:00,24.5,19.5,30.60,NW,323,0.0,0.0,81,0.00,FEW,,0.00,76.0,WeatherDisplay:10.37,2013-11-29 13:22:00,
2013-11-29 08:27:00,24.8,19.8,30.61,NW,323,0.0,0.0,81,0.00,FEW,,0.00,67.0,WeatherDisplay:10.37,2013-11-29 13:27:00,
2013-11-29 08:32:00,25.3,20.3,30.61,NW,323,0.0,0.0,81,0.00,FEW,,0.00,90.0,WeatherDisplay:10.37,2013-11-29 13:32:00,
2013-11-29 08:37:00,26.0,21.0,30.61,NW,323,0.0,0.0,81,0.00,FEW,,0.00,97.0,WeatherDisplay:10.37,2013-11-29 13:37:00,
2013-11-29 08:42:00,26.9,21.8,30.62,NW,323,0.0,0.0,81,0.00,FEW,,0.00,118.0,WeatherDisplay:10.37,2013-11-29 13:42:00,
2013-11-29 08:47:00,27.9,22.8,30.62,NW,323,0.0,0.0,81,0.00,FEW,,0.00,142.0,WeatherDisplay:10.37,2013-11-29 13:47:00,
2013-11-29 08:52:00,28.7,23.3,30.62,NW,323,0.0,0.0,80,0.00,FEW,,0.00,176.0,WeatherDisplay:10.37,2013-11-29 13:52:00,
2013-11-29 08:57:00,29.5,24.1,30.62,NW,323,0.0,0.0,80,0.00,FEW,,0.00,204.0,WeatherDisplay:10.37,2013-11-29 13:57:00,
2013-11-29 09:02:00,30.4,24.4,30.62,NW,323,0.0,0.0,78,0.00,FEW,,0.00,232.0,WeatherDisplay:10.37,2013-11-29 14:02:00,
2013-11-29 09:07:00,30.7,23.7,30.62,NW,323,0.0,1.2,75,0.00,FEW,,0.00,250.0,WeatherDisplay:10.37,2013-11-29 14:07:00,
2013-11-29 09:12:00,31.2,23.2,30.63,NW,323,0.7,1.5,72,0.00,FEW,,0.00,248.0,WeatherDisplay:10.37,2013-11-29 14:12:00,
2013-11-29 09:17:00,31.0,22.0,30.63,NW,323,0.0,0.0,69,0.00,FEW,,0.00,237.0,WeatherDisplay:10.37,2013-11-29 14:17:00,
2013-11-29 09:22:00,31.6,21.9,30.63,NW,323,0.2,1.5,67,0.00,FEW,,0.00,272.0,WeatherDisplay:10.37,2013-11-29 14:22:00,
2013-11-29 09:27:00,32.1,21.7,30.63,NW,323,0.0,1.2,65,0.00,FEW,,0.00,302.0,WeatherDisplay:10.37,2013-11-29 14:27:00,
2013-11-29 09:32:00,32.5,22.0,30.63,NW,323,0.0,0.0,65,0.00,FEW,,0.00,313.0,WeatherDisplay:10.37,2013-11-29 14:32:00,
2013-11-29 09:37:00,32.9,21.7,30.63,NW,323,0.0,0.0,63,0.00,FEW,,0.00,308.0,WeatherDisplay:10.37,2013-11-29 14:37:00,
2013-11-29 09:42:00,33.5,21.9,30.63,NW,323,0.0,0.0,62,0.00,FEW,,0.00,330.0,WeatherDisplay:10.37,2013-11-29 14:42:00,
2013-11-29 09:47:00,34.1,22.0,30.63,NW,323,0.0,0.0,61,0.00,FEW,,0.00,329.0,WeatherDisplay:10.37,2013-11-29 14:47:00,
2013-11-29 09:52:00,34.9,22.0,30.63,NW,323,0.0,0.0,59,0.00,FEW,,0.00,346.0,WeatherDisplay:10.37,2013-11-29 14:52:00,
2013-11-29 09:57:00,35.9,22.1,30.64,NW,323,0.0,1.5,57,0.00,FEW,,0.00,360.0,WeatherDisplay:10.37,2013-11-29 14:57:00,
2013-11-29 10:02:00,35.8,21.2,30.64,NNW,330,1.9,5.8,55,0.00,FEW,,0.00,359.0,WeatherDisplay:10.37,2013-11-29 15:02:00,
2013-11-29 10:07:00,35.6,20.1,30.64,NNW,330,0.4,3.5,53,0.00,CLR,,0.00,366.0,WeatherDisplay:10.37,2013-11-29 15:07:00,
2013-11-29 10:12:00,35.9,20.4,30.64,NNW,330,0.0,1.5,53,0.00,CLR,,0.00,378.0,WeatherDisplay:10.37,2013-11-29 15:12:00,
2013-11-29 10:17:00,36.2,20.2,30.64,NNW,330,0.1,3.5,52,0.00,CLR,,0.00,392.0,WeatherDisplay:10.37,2013-11-29 15:17:00,
2013-11-29 10:22:00,36.9,20.9,30.65,NNW,331,3.6,6.0,52,0.00,CLR,,0.00,408.0,WeatherDisplay:10.37,2013-11-29 15:22:00,
2013-11-29 10:27:00,36.6,20.2,30.65,NNE,15,0.7,3.5,51,0.00,CLR,,0.00,422.0,WeatherDisplay:10.37,2013-11-29 15:27:00,
2013-11-29 10:32:00,36.5,18.2,30.65,NW,324,4.7,9.2,47,0.00,CLR,,0.00,431.0,WeatherDisplay:10.37,2013-11-29 15:32:00,
2013-11-29 10:37:00,36.8,17.4,30.66,NNW,338,10.2,10.4,45,0.00,CLR,,0.00,341.0,WeatherDisplay:10.37,2013-11-29 15:37:00,
2013-11-29 10:42:00,37.3,18.4,30.65,NW,323,12.5,15.0,46,0.00,CLR,,0.00,494.0,WeatherDisplay:10.37,2013-11-29 15:42:00,
2013-11-29 10:47:00,37.0,17.6,30.65,North,355,8.1,10.4,45,0.00,CLR,,0.00,410.0,WeatherDisplay:10.37,2013-11-29 15:47:00,
2013-11-29 10:52:00,37.3,17.9,30.65,NNW,331,6.6,9.2,45,0.00,CLR,,0.00,438.0,WeatherDisplay:10.37,2013-11-29 15:52:00,
2013-11-29 10:57:00,37.3,18.9,30.65,NNW,339,2.0,3.0,47,0.00,CLR,,0.00,436.0,WeatherDisplay:10.37,2013-11-29 15:57:00,
2013-11-29 11:02:00,37.8,17.8,30.65,NNE,22,4.4,9.0,44,0.00,CLR,,0.00,443.0,WeatherDisplay:10.37,2013-11-29 16:02:00,
2013-11-29 11:07:00,38.0,17.5,30.65,NNW,329,0.5,5.8,43,0.00,CLR,,0.00,448.0,WeatherDisplay:10.37,2013-11-29 16:07:00,
2013-11-29 11:12:00,38.2,16.5,30.65,NNW,342,7.8,9.2,41,0.00,CLR,,0.00,434.0,WeatherDisplay:10.37,2013-11-29 16:12:00,
2013-11-29 11:17:00,38.5,17.9,30.65,NW,306,8.3,8.3,43,0.00,CLR,,0.00,452.0,WeatherDisplay:10.37,2013-11-29 16:17:00,
2013-11-29 11:22:00,38.3,16.6,30.65,WNW,300,7.0,15.0,41,0.00,CLR,,0.00,464.0,WeatherDisplay:10.37,2013-11-29 16:22:00,
2013-11-29 11:27:00,37.8,15.6,30.65,NW,311,2.6,10.4,40,0.00,CLR,,0.00,81.0,WeatherDisplay:10.37,2013-11-29 16:27:00,
2013-11-29 11:32:00,38.0,17.5,30.65,NNE,19,4.2,8.1,43,0.00,CLR,,0.00,473.0,WeatherDisplay:10.37,2013-11-29 16:32:00,
2013-11-29 11:37:00,38.3,15.5,30.65,NW,313,9.5,15.0,39,0.00,CLR,,0.00,478.0,WeatherDisplay:10.37,2013-11-29 16:37:00,
2013-11-29 11:42:00,38.3,16.1,30.64,NW,314,8.6,13.8,40,0.00,CLR,,0.00,471.0,WeatherDisplay:10.37,2013-11-29 16:42:00,
2013-11-29 11:47:00,38.5,16.8,30.64,NNW,333,9.8,10.5,41,0.00,CLR,,0.00,480.0,WeatherDisplay:10.37,2013-11-29 16:47:00,
2013-11-29 11:52:00,38.5,16.8,30.64,NNW,332,12.9,15.0,41,0.00,CLR,,0.00,503.0,WeatherDisplay:10.37,2013-11-29 16:52:00,
2013-11-29 11:57:00,38.6,15.7,30.64,NNW,329,15.3,18.4,39,0.00,CLR,,0.00,540.0,WeatherDisplay:10.37,2013-11-29 16:57:00,
2013-11-29 12:02:00,38.8,16.5,30.65,North,350,11.5,21.0,40,0.00,CLR,,0.00,559.0,WeatherDisplay:10.37,2013-11-29 17:02:00,
2013-11-29 12:07:00,38.8,15.9,30.65,NNW,348,13.4,16.1,39,0.00,CLR,,0.00,545.0,WeatherDisplay:10.37,2013-11-29 17:07:00,
2013-11-29 12:12:00,38.5,16.2,30.65,NNE,15,14.6,16.5,40,0.00,CLR,,0.00,545.0,WeatherDisplay:10.37,2013-11-29 17:12:00,
2013-11-29 12:17:00,37.8,15.0,30.64,North,355,13.2,13.8,39,0.00,CLR,,0.00,98.0,WeatherDisplay:10.37,2013-11-29 17:17:00,
2013-11-29 12:22:00,37.2,16.2,30.64,NNW,327,6.9,10.4,42,0.00,CLR,,0.00,513.0,WeatherDisplay:10.37,2013-11-29 17:22:00,
2013-11-29 12:27:00,38.2,17.6,30.64,WNW,289,5.9,8.1,43,0.00,CLR,,0.00,584.0,WeatherDisplay:10.37,2013-11-29 17:27:00,
2013-11-29 12:32:00,39.5,17.7,30.64,NNE,25,12.0,12.0,41,0.00,CLR,,0.00,522.0,WeatherDisplay:10.37,2013-11-29 17:32:00,
2013-11-29 12:37:00,38.6,15.7,30.64,NNE,25,10.9,15.0,39,0.00,CLR,,0.00,473.0,WeatherDisplay:10.37,2013-11-29 17:37:00,
2013-11-29 12:42:00,38.5,16.2,30.64,NW,311,17.7,18.0,40,0.00,CLR,,0.00,471.0,WeatherDisplay:10.37,2013-11-29 17:42:00,
2013-11-29 12:47:00,38.8,15.9,30.63,NNW,331,18.1,19.6,39,0.00,CLR,,0.00,441.0,WeatherDisplay:10.37,2013-11-29 17:47:00,
2013-11-29 12:52:00,38.8,15.9,30.63,NNW,340,14.6,16.1,39,0.00,CLR,,0.00,441.0,WeatherDisplay:10.37,2013-11-29 17:52:00,
2013-11-29 12:57:00,39.1,16.2,30.63,WNW,286,12.3,15.0,39,0.00,CLR,,0.00,445.0,WeatherDisplay:10.37,2013-11-29 17:57:00,
2013-11-29 13:02:00,39.2,15.7,30.63,NNW,327,15.5,16.1,38,0.00,CLR,,0.00,436.0,WeatherDisplay:10.37,2013-11-29 18:02:00,
2013-11-29 13:07:00,39.1,15.6,30.63,NNW,329,19.4,19.6,38,0.00,CLR,,0.00,427.0,WeatherDisplay:10.37,2013-11-29 18:07:00,
2013-11-29 13:12:00,39.2,16.3,30.63,NNW,348,16.6,22.5,39,0.00,FEW,,0.00,422.0,WeatherDisplay:10.37,2013-11-29 18:12:00,
2013-11-29 13:17:00,39.2,15.7,30.63,North,360,10.9,13.8,38,0.00,FEW,,0.00,411.0,WeatherDisplay:10.37,2013-11-29 18:17:00,
2013-11-29 13:22:00,39.2,16.3,30.62,NNW,336,7.9,15.0,39,0.00,FEW,,0.00,403.0,WeatherDisplay:10.37,2013-11-29 18:22:00,
2013-11-29 13:27:00,39.1,16.2,30.62,NE,36,4.1,13.8,39,0.00,FEW,,0.00,413.0,WeatherDisplay:10.37,2013-11-29 18:27:00,
2013-11-29 13:32:00,39.2,16.3,30.62,NW,319,12.2,16.1,39,0.00,FEW,,0.00,403.0,WeatherDisplay:10.37,2013-11-29 18:32:00,
2013-11-29 13:37:00,39.3,15.8,30.63,NW,313,12.9,15.0,38,0.00,FEW,,0.00,396.0,WeatherDisplay:10.37,2013-11-29 18:37:00,
2013-11-29 13:42:00,39.2,15.7,30.63,North,5,11.4,18.4,38,0.00,FEW,,0.00,390.0,WeatherDisplay:10.37,2013-11-29 18:42:00,
2013-11-29 13:47:00,39.1,16.2,30.63,NNW,333,15.0,16.5,39,0.00,FEW,,0.00,378.0,WeatherDisplay:10.37,2013-11-29 18:47:00,
2013-11-29 13:52:00,38.9,16.6,30.63,NW,318,10.4,16.1,40,0.00,FEW,,0.00,369.0,WeatherDisplay:10.37,2013-11-29 18:52:00,
2013-11-29 13:57:00,39.2,16.3,30.62,North,350,14.8,16.5,39,0.00,FEW,,0.00,353.0,WeatherDisplay:10.37,2013-11-29 18:57:00,
2013-11-29 14:02:00,38.9,16.0,30.62,NNE,14,16.1,16.1,39,0.00,FEW,,0.00,334.0,WeatherDisplay:10.37,2013-11-29 19:02:00,
2013-11-29 14:07:00,38.8,15.9,30.62,NNE,24,12.3,16.1,39,0.00,FEW,,0.00,330.0,WeatherDisplay:10.37,2013-11-29 19:07:00,
2013-11-29 14:12:00,38.8,14.7,30.62,NNE,18,9.2,16.1,37,0.00,FEW,,0.00,322.0,WeatherDisplay:10.37,2013-11-29 19:12:00,
2013-11-29 14:17:00,38.9,16.0,30.62,NNE,21,10.4,10.5,39,0.00,FEW,,0.00,216.0,WeatherDisplay:10.37,2013-11-29 19:17:00,
2013-11-29 14:22:00,38.9,14.8,30.62,NW,311,12.4,15.0,37,0.00,FEW,,0.00,297.0,WeatherDisplay:10.37,2013-11-29 19:22:00,
2013-11-29 14:27:00,38.9,15.4,30.62,NNW,340,7.7,9.2,38,0.00,FEW,,0.00,288.0,WeatherDisplay:10.37,2013-11-29 19:27:00,
2013-11-29 14:32:00,38.6,15.1,30.63,NNW,332,8.8,10.5,38,0.00,FEW,,0.00,204.0,WeatherDisplay:10.37,2013-11-29 19:32:00,
2013-11-29 14:37:00,38.5,15.1,30.63,North,5,10.8,15.0,38,0.00,FEW,,0.00,257.0,WeatherDisplay:10.37,2013-11-29 19:37:00,
2013-11-29 14:42:00,38.3,15.5,30.62,NNW,339,8.3,13.8,39,0.00,FEW,,0.00,253.0,WeatherDisplay:10.37,2013-11-29 19:42:00,
2013-11-29 14:47:00,38.2,15.4,30.63,NW,312,6.6,16.1,39,0.00,FEW,,0.00,241.0,WeatherDisplay:10.37,2013-11-29 19:47:00,
2013-11-29 14:52:00,38.5,15.7,30.63,NW,325,6.9,9.2,39,0.00,FEW,,0.00,234.0,WeatherDisplay:10.37,2013-11-29 19:52:00,
2013-11-29 14:57:00,38.6,14.5,30.63,NW,319,13.6,15.0,37,0.00,FEW,,0.00,218.0,WeatherDisplay:10.37,2013-11-29 19:57:00,
2013-11-29 15:02:00,38.6,15.1,30.63,NW,309,10.1,13.5,38,0.00,FEW,,0.00,211.0,WeatherDisplay:10.37,2013-11-29 20:02:00,
2013-11-29 15:07:00,38.3,14.9,30.63,NNW,343,1.5,4.6,38,0.00,FEW,,0.00,188.0,WeatherDisplay:10.37,2013-11-29 20:07:00,
2013-11-29 15:12:00,38.5,15.7,30.63,NNW,346,10.1,15.0,39,0.00,FEW,,0.00,179.0,WeatherDisplay:10.37,2013-11-29 20:12:00,
2013-11-29 15:17:00,38.5,14.4,30.63,NNW,328,13.7,16.5,37,0.00,FEW,,0.00,160.0,WeatherDisplay:10.37,2013-11-29 20:17:00,
2013-11-29 15:22:00,38.2,14.2,30.64,NW,320,9.4,18.4,37,0.00,FEW,,0.00,148.0,WeatherDisplay:10.37,2013-11-29 20:22:00,
2013-11-29 15:27:00,38.2,14.2,30.65,NW,319,6.8,9.2,37,0.00,FEW,,0.00,132.0,WeatherDisplay:10.37,2013-11-29 20:27:00,
2013-11-29 15:32:00,38.2,14.2,30.64,North,360,5.1,9.0,37,0.00,FEW,,0.00,118.0,WeatherDisplay:10.37,2013-11-29 20:32:00,
2013-11-29 15:37:00,38.2,14.8,30.65,NNW,340,8.5,10.4,38,0.00,FEW,,0.00,104.0,WeatherDisplay:10.37,2013-11-29 20:37:00,
2013-11-29 15:42:00,38.0,14.0,30.65,North,355,8.7,9.0,37,0.00,FEW,,0.00,90.0,WeatherDisplay:10.37,2013-11-29 20:42:00,
2013-11-29 15:47:00,37.9,13.9,30.65,North,350,9.0,9.0,37,0.00,FEW,,0.00,81.0,WeatherDisplay:10.37,2013-11-29 20:47:00,
2013-11-29 15:52:00,37.6,14.2,30.65,NNW,342,5.1,8.1,38,0.00,FEW,,0.00,65.0,WeatherDisplay:10.37,2013-11-29 20:52:00,
2013-11-29 15:57:00,37.6,14.8,30.65,NNW,333,7.8,10.4,39,0.00,FEW,,0.00,56.0,WeatherDisplay:10.37,2013-11-29 20:57:00,
2013-11-29 16:02:00,37.3,14.6,30.65,NW,319,6.3,9.2,39,0.00,FEW,,0.00,46.0,WeatherDisplay:10.37,2013-11-29 21:02:00,
2013-11-29 16:07:00,37.0,15.5,30.65,NNW,333,4.2,6.0,41,0.00,FEW,,0.00,35.0,WeatherDisplay:10.37,2013-11-29 21:07:00,
2013-11-29 16:12:00,36.8,15.3,30.66,NNW,332,3.8,5.8,41,0.00,FEW,,0.00,28.0,WeatherDisplay:10.37,2013-11-29 21:12:00,
2013-11-29 16:17:00,36.5,15.6,30.66,NNW,333,4.7,6.0,42,0.00,FEW,,0.00,23.0,WeatherDisplay:10.37,2013-11-29 21:17:00,
2013-11-29 16:22:00,36.2,15.3,30.66,NNW,331,4.3,6.0,42,0.00,FEW,,0.00,21.0,WeatherDisplay:10.37,2013-11-29 21:22:00,
2013-11-29 16:27:00,35.8,14.9,30.66,NNW,332,0.0,0.0,42,0.00,FEW,,0.00,18.0,WeatherDisplay:10.37,2013-11-29 21:27:00,
2013-11-29 16:32:00,35.3,15.0,30.67,NNW,331,1.5,3.5,43,0.00,FEW,,0.00,14.0,WeatherDisplay:10.37,2013-11-29 21:32:00,
2013-11-29 16:37:00,34.9,14.6,30.67,NNW,331,0.9,3.5,43,0.00,FEW,,0.00,9.0,WeatherDisplay:10.37,2013-11-29 21:37:00,
2013-11-29 16:42:00,34.6,14.9,30.67,NNW,331,0.0,1.2,44,0.00,FEW,,0.00,7.0,WeatherDisplay:10.37,2013-11-29 21:42:00,
2013-11-29 16:47:00,34.1,14.4,30.67,NNW,331,0.4,1.5,44,0.00,FEW,,0.00,0.0,WeatherDisplay:10.37,2013-11-29 21:47:00,
2013-11-29 16:52:00,33.8,14.7,30.67,NNW,331,0.0,0.0,45,0.00,FEW,,0.00,0.0,WeatherDisplay:10.37,2013-11-29 21:52:00,
2013-11-29 16:57:00,33.4,14.3,30.67,NNW,331,0.0,0.0,45,0.00,FEW,,0.00,0.0,WeatherDisplay:10.37,2013-11-29 21:57:00,
2013-11-29 17:02:00,32.9,14.4,30.67,NNW,331,0.0,0.0,46,0.00,FEW,,0.00,0.0,WeatherDisplay:10.37,2013-11-29 22:02:00,
2013-11-29 17:07:00,32.5,14.5,30.68,NNW,331,0.0,0.0,47,0.00,FEW,,0.00,0.0,WeatherDisplay:10.37,2013-11-29 22:07:00,
2013-11-29 17:12:00,31.9,13.9,30.68,NNW,331,0.0,0.0,47,0.00,FEW,,0.00,0.0,WeatherDisplay:10.37,2013-11-29 22:12:00,
2013-11-29 17:17:00,31.5,14.0,30.68,NNW,331,0.0,0.0,48,0.00,FEW,,0.00,0.0,WeatherDisplay:10.37,2013-11-29 22:17:00,
2013-11-29 17:22:00,30.9,14.0,30.68,NNW,331,0.0,0.0,49,0.00,FEW,,0.00,0.0,WeatherDisplay:10.37,2013-11-29 22:22:00,
2013-11-29 17:27:00,30.9,14.4,30.68,NNW,331,0.0,0.0,50,0.00,FEW,,0.00,0.0,WeatherDisplay:10.37,2013-11-29 22:27:00,
2013-11-29 17:32:00,30.7,14.7,30.68,NNW,331,0.0,0.0,51,0.00,FEW,,0.00,0.0,WeatherDisplay:10.37,2013-11-29 22:32:00,
2013-11-29 17:37:00,30.4,14.4,30.68,NNW,331,0.0,0.0,51,0.00,FEW,,0.00,0.0,WeatherDisplay:10.37,2013-11-29 22:37:00,
2013-11-29 17:42:00,29.8,13.9,30.69,NNW,331,0.2,1.5,51,0.00,FEW,,0.00,0.0,WeatherDisplay:10.37,2013-11-29 22:42:00,
2013-11-29 17:47:00,29.0,14.0,30.69,NNW,331,0.0,0.0,53,0.00,FEW,,0.00,0.0,WeatherDisplay:10.37,2013-11-29 22:47:00,
2013-11-29 17:52:00,28.5,13.9,30.69,NNW,331,0.0,0.0,54,0.00,FEW,,0.00,0.0,WeatherDisplay:10.37,2013-11-29 22:52:00,
2013-11-29 17:57:00,28.2,14.1,30.69,NNW,331,0.0,0.0,55,0.00,FEW,,0.00,0.0,WeatherDisplay:10.37,2013-11-29 22:57:00,
2013-11-29 18:02:00,27.9,14.2,30.69,NNW,331,0.0,0.0,56,0.00,CLR,,0.00,0.0,WeatherDisplay:10.37,2013-11-29 23:02:00,
2013-11-29 18:07:00,27.8,14.5,30.69,NNW,331,0.0,0.0,57,0.00,CLR,,0.00,0.0,WeatherDisplay:10.37,2013-11-29 23:07:00,
2013-11-29 18:12:00,27.3,14.1,30.70,NNW,331,0.0,0.0,57,0.00,CLR,,0.00,0.0,WeatherDisplay:10.37,2013-11-29 23:12:00,
2013-11-29 18:17:00,27.2,14.4,30.70,NNW,331,0.0,0.0,58,0.00,CLR,,0.00,0.0,WeatherDisplay:10.37,2013-11-29 23:17:00,
2013-11-29 18:22:00,26.9,14.5,30.70,NNW,331,0.0,0.0,59,0.00,CLR,,0.00,0.0,WeatherDisplay:10.37,2013-11-29 23:22:00,
2013-11-29 18:27:00,26.4,14.0,30.70,NNW,331,0.0,0.0,59,0.00,CLR,,0.00,0.0,WeatherDisplay:10.37,2013-11-29 23:27:00,
2013-11-29 18:32:00,26.1,14.1,30.70,NNW,331,0.0,0.0,60,0.00,CLR,,0.00,0.0,WeatherDisplay:10.37,2013-11-29 23:32:00,
2013-11-29 18:37:00,26.0,14.0,30.70,NNW,331,0.0,0.0,60,0.00,CLR,,0.00,0.0,WeatherDisplay:10.37,2013-11-29 23:37:00,
2013-11-29 18:42:00,26.3,14.7,30.70,NNW,331,0.0,0.0,61,0.00,CLR,,0.00,0.0,WeatherDisplay:10.37,2013-11-29 23:42:00,
2013-11-29 18:47:00,26.0,14.4,30.70,NNW,331,0.0,0.0,61,0.00,CLR,,0.00,0.0,WeatherDisplay:10.37,2013-11-29 23:47:00,
2013-11-29 18:52:00,25.4,13.8,30.71,NNW,331,0.0,0.0,61,0.00,CLR,,0.00,0.0,WeatherDisplay:10.37,2013-11-29 23:52:00,
2013-11-29 18:57:00,25.1,13.9,30.71,NNW,331,0.0,0.0,62,0.00,CLR,,0.00,0.0,WeatherDisplay:10.37,2013-11-29 23:57:00,
2013-11-29 19:02:00,24.8,13.6,30.71,NNW,331,0.0,0.0,62,0.00,CLR,,0.00,0.0,WeatherDisplay:10.37,2013-11-30 00:02:00,
2013-11-29 19:07:00,25.0,14.2,30.71,NNW,331,0.0,0.0,63,0.00,CLR,,0.00,0.0,WeatherDisplay:10.37,2013-11-30 00:07:00,
2013-11-29 19:12:00,25.0,14.2,30.71,NNW,331,0.0,0.0,63,0.00,CLR,,0.00,0.0,WeatherDisplay:10.37,2013-11-30 00:12:00,
2013-11-29 19:17:00,24.8,14.0,30.72,NNW,331,0.0,0.0,63,0.00,CLR,,0.00,0.0,WeatherDisplay:10.37,2013-11-30 00:17:00,
2013-11-29 19:22:00,24.7,14.2,30.72,NNW,331,0.0,0.0,64,0.00,CLR,,0.00,0.0,WeatherDisplay:10.37,2013-11-30 00:22:00,
2013-11-29 19:27:00,24.8,14.7,30.72,NNW,331,0.0,0.0,65,0.00,CLR,,0.00,0.0,WeatherDisplay:10.37,2013-11-30 00:27:00,
2013-11-29 19:32:00,24.7,14.2,30.72,NNW,331,0.0,0.0,64,0.00,CLR,,0.00,0.0,WeatherDisplay:10.37,2013-11-30 00:32:00,
2013-11-29 19:37:00,24.5,14.1,30.72,NNW,331,0.0,0.0,64,0.00,CLR,,0.00,0.0,WeatherDisplay:10.37,2013-11-30 00:37:00,
2013-11-29 19:42:00,24.1,13.7,30.72,NNW,331,0.0,0.0,64,0.00,CLR,,0.00,0.0,WeatherDisplay:10.37,2013-11-30 00:42:00,
2013-11-29 19:47:00,23.6,13.2,30.72,NNW,331,0.0,0.0,64,0.00,CLR,,0.00,0.0,WeatherDisplay:10.37,2013-11-30 00:47:00,
2013-11-29 19:52:00,23.3,13.3,30.72,NNW,331,0.0,0.0,65,0.00,CLR,,0.00,0.0,WeatherDisplay:10.37,2013-11-30 00:52:00,
2013-11-29 19:57:00,22.9,12.9,30.72,NNW,331,0.0,0.0,65,0.00,CLR,,0.00,0.0,WeatherDisplay:10.37,2013-11-30 00:57:00,
2013-11-29 20:02:00,22.5,12.8,30.72,NNW,331,0.0,0.0,66,0.00,CLR,,0.00,0.0,WeatherDisplay:10.37,2013-11-30 01:02:00,
2013-11-29 20:07:00,22.2,12.9,30.72,NNW,331,0.0,0.0,67,0.00,CLR,,0.00,0.0,WeatherDisplay:10.37,2013-11-30 01:07:00,
2013-11-29 20:12:00,21.9,12.6,30.72,NNW,331,0.0,0.0,67,0.00,CLR,,0.00,0.0,WeatherDisplay:10.37,2013-11-30 01:12:00,
2013-11-29 20:17:00,21.9,13.0,30.72,NNW,331,0.0,0.0,68,0.00,CLR,,0.00,0.0,WeatherDisplay:10.37,2013-11-30 01:17:00,
2013-11-29 20:22:00,21.9,13.3,30.72,NNW,331,0.0,0.0,69,0.00,CLR,,0.00,0.0,WeatherDisplay:10.37,2013-11-30 01:22:00,
2013-11-29 20:27:00,22.2,13.9,30.72,NNW,331,0.0,0.0,70,0.00,CLR,,0.00,0.0,WeatherDisplay:10.37,2013-11-30 01:27:00,
2013-11-29 20:32:00,22.4,14.1,30.72,NNW,331,0.0,0.0,70,0.00,CLR,,0.00,0.0,WeatherDisplay:10.37,2013-11-30 01:32:00,
2013-11-29 20:37:00,22.4,14.4,30.72,NNW,331,0.0,0.0,71,0.00,CLR,,0.00,0.0,WeatherDisplay:10.37,2013-11-30 01:37:00,
2013-11-29 20:42:00,22.1,14.1,30.72,NNW,331,0.0,0.0,71,0.00,CLR,,0.00,0.0,WeatherDisplay:10.37,2013-11-30 01:42:00,
2013-11-29 20:47:00,21.6,13.6,30.73,NNW,331,0.0,0.0,71,0.00,CLR,,0.00,0.0,WeatherDisplay:10.37,2013-11-30 01:47:00,
2013-11-29 20:52:00,21.3,13.4,30.72,NNW,331,0.0,0.0,71,0.00,CLR,,0.00,0.0,WeatherDisplay:10.37,2013-11-30 01:52:00,
2013-11-29 20:57:00,21.1,13.2,30.72,NNW,331,0.0,0.0,71,0.00,CLR,,0.00,0.0,WeatherDisplay:10.37,2013-11-30 01:57:00,
2013-11-29 21:02:00,21.0,13.4,30.72,NNW,331,0.0,0.0,72,0.00,CLR,,0.00,0.0,WeatherDisplay:10.37,2013-11-30 02:02:00,
2013-11-29 21:07:00,21.0,13.4,30.73,NNW,331,0.0,0.0,72,0.00,CLR,,0.00,0.0,WeatherDisplay:10.37,2013-11-30 02:07:00,
2013-11-29 21:12:00,21.0,13.4,30.73,NNW,331,0.0,0.0,72,0.00,CLR,,0.00,0.0,WeatherDisplay:10.37,2013-11-30 02:12:00,
2013-11-29 21:17:00,21.0,13.7,30.73,NNW,331,0.0,0.0,73,0.00,CLR,,0.00,0.0,WeatherDisplay:10.37,2013-11-30 02:17:00,
2013-11-29 21:22:00,21.0,13.7,30.73,NNW,331,0.0,0.0,73,0.00,CLR,,0.00,0.0,WeatherDisplay:10.37,2013-11-30 02:22:00,
2013-11-29 21:27:00,20.8,13.5,30.73,NNW,331,0.0,0.0,73,0.00,CLR,,0.00,0.0,WeatherDisplay:10.37,2013-11-30 02:27:00,
2013-11-29 21:32:00,20.8,13.8,30.73,NNW,331,0.0,0.0,74,0.00,CLR,,0.00,0.0,WeatherDisplay:10.37,2013-11-30 02:32:00,
2013-11-29 21:37:00,20.5,13.5,30.73,NNW,331,0.0,0.0,74,0.00,CLR,,0.00,0.0,WeatherDisplay:10.37,2013-11-30 02:37:00,
2013-11-29 21:42:00,20.5,13.5,30.73,NNW,331,0.0,0.0,74,0.00,CLR,,0.00,0.0,WeatherDisplay:10.37,2013-11-30 02:42:00,
2013-11-29 21:47:00,20.5,13.5,30.73,NNW,331,0.0,0.0,74,0.00,CLR,,0.00,0.0,WeatherDisplay:10.37,2013-11-30 02:47:00,
2013-11-29 21:52:00,20.3,13.3,30.73,NNW,331,0.0,0.0,74,0.00,CLR,,0.00,0.0,WeatherDisplay:10.37,2013-11-30 02:52:00,
2013-11-29 21:57:00,20.2,13.2,30.73,NNW,331,0.0,0.0,74,0.00,CLR,,0.00,0.0,WeatherDisplay:10.37,2013-11-30 02:57:00,
2013-11-29 22:02:00,20.2,13.5,30.73,NNW,331,0.0,0.0,75,0.00,CLR,,0.00,0.0,WeatherDisplay:10.37,2013-11-30 03:02:00,
2013-11-29 22:07:00,20.2,13.5,30.73,NNW,331,0.0,0.0,75,0.00,CLR,,0.00,0.0,WeatherDisplay:10.37,2013-11-30 03:07:00,
2013-11-29 22:12:00,20.0,13.3,30.73,NNW,331,0.0,0.0,75,0.00,CLR,,0.00,0.0,WeatherDisplay:10.37,2013-11-30 03:12:00,
2013-11-29 22:17:00,19.9,13.3,30.73,NNW,331,0.0,0.0,75,0.00,CLR,,0.00,0.0,WeatherDisplay:10.37,2013-11-30 03:17:00,
2013-11-29 22:22:00,19.7,13.1,30.73,NNW,331,0.0,0.0,75,0.00,CLR,,0.00,0.0,WeatherDisplay:10.37,2013-11-30 03:22:00,
2013-11-29 22:27:00,19.4,12.8,30.73,NNW,331,0.0,0.0,75,0.00,CLR,,0.00,0.0,WeatherDisplay:10.37,2013-11-30 03:27:00,
2013-11-29 22:32:00,19.2,12.6,30.73,NNW,331,0.0,0.0,75,0.00,CLR,,0.00,0.0,WeatherDisplay:10.37,2013-11-30 03:32:00,
2013-11-29 22:37:00,19.2,12.6,30.73,NNW,331,0.0,0.0,75,0.00,CLR,,0.00,0.0,WeatherDisplay:10.37,2013-11-30 03:37:00,
2013-11-29 22:42:00,18.9,12.3,30.73,NNW,331,0.0,0.0,75,0.00,CLR,,0.00,0.0,WeatherDisplay:10.37,2013-11-30 03:42:00,
2013-11-29 22:47:00,18.6,12.0,30.73,NNW,331,0.0,0.0,75,0.00,CLR,,0.00,0.0,WeatherDisplay:10.37,2013-11-30 03:47:00,
2013-11-29 22:52:00,18.4,11.8,30.73,NNW,331,0.0,0.0,75,0.00,CLR,,0.00,0.0,WeatherDisplay:10.37,2013-11-30 03:52:00,
2013-11-29 22:57:00,18.4,11.8,30.74,NNW,331,0.0,0.0,75,0.00,CLR,,0.00,0.0,WeatherDisplay:10.37,2013-11-30 03:57:00,
2013-11-29 23:02:00,18.4,12.1,30.74,NNW,331,0.0,0.0,76,0.00,CLR,,0.00,0.0,WeatherDisplay:10.37,2013-11-30 04:02:00,
2013-11-29 23:07:00,18.4,12.1,30.74,NNW,331,0.0,0.0,76,0.00,CLR,,0.00,0.0,WeatherDisplay:10.37,2013-11-30 04:07:00,
2013-11-29 23:12:00,18.4,12.1,30.74,NNW,331,0.0,0.0,76,0.00,CLR,,0.00,0.0,WeatherDisplay:10.37,2013-11-30 04:12:00,
2013-11-29 23:17:00,18.4,12.1,30.74,NNW,331,0.0,0.0,76,0.00,CLR,,0.00,0.0,WeatherDisplay:10.37,2013-11-30 04:17:00,
2013-11-29 23:22:00,18.3,12.0,30.74,NNW,331,0.0,0.0,76,0.00,CLR,,0.00,0.0,WeatherDisplay:10.37,2013-11-30 04:22:00,
2013-11-29 23:27:00,18.1,11.8,30.74,NNW,331,0.0,0.0,76,0.00,CLR,,0.00,0.0,WeatherDisplay:10.37,2013-11-30 04:27:00,
2013-11-29 23:32:00,18.1,11.8,30.74,NNW,331,0.0,0.0,76,0.00,CLR,,0.00,0.0,WeatherDisplay:10.37,2013-11-30 04:32:00,
2013-11-29 23:37:00,18.1,12.1,30.74,NNW,331,0.0,0.0,77,0.00,CLR,,0.00,0.0,WeatherDisplay:10.37,2013-11-30 04:37:00,
2013-11-29 23:42:00,18.1,12.1,30.74,NNW,331,0.0,0.0,77,0.00,CLR,,0.00,0.0,WeatherDisplay:10.37,2013-11-30 04:42:00,
2013-11-29 23:47:00,18.1,12.1,30.74,NNW,331,0.0,0.0,77,0.00,CLR,,0.00,0.0,WeatherDisplay:10.37,2013-11-30 04:47:00,
2013-11-29 23:52:00,18.0,12.0,30.74,NNW,331,0.0,0.0,77,0.00,CLR,,0.00,0.0,WeatherDisplay:10.37,2013-11-30 04:52:00,
2013-11-29 23:57:00,18.0,12.0,30.74,NNW,331,0.0,0.0,77,0.00,CLR,,0.00,0.0,WeatherDisplay:10.37,2013-11-30 04:57:00,